Time;durP1;ratioP1;P1;durP2;ratioP2;P2;SDS_P1;SDS_P2;PMS_P1;PMS_P2;Temp;Humidity;BMP_temperature;BMP_pressure;BME280_temperature;BME280_humidity;BME280_pressure;Samples;Min_cycle;Max_cycle;Signal;HPM_P1;HPM_P2
2022/09/09 00:02:06;;;;;;;;;;;;;;;13.58;60.13;99370.62;1678468;85;22074;-67
2022/09/09 00:04:36;;;;;;;;;;;;;;;13.59;60.07;99373.63;1678190;85;20112;-67
2022/09/09 00:07:20;;;;;;;;;;;;;;;13.60;59.99;99369.11;1680538;85;20119;-67
2022/09/09 00:09:52;;;;;;;;;;;;;;;13.60;60.04;99369.94;1678130;84;20092;-67
2022/09/09 00:12:38;;;;;;;;;;;;;;;13.59;60.08;99368.27;1680323;85;20127;-67
2022/09/09 00:15:13;;;;;;;;;;;;;;;13.57;60.13;99359.63;1678996;85;21171;-67
2022/09/09 00:17:49;;;;;;;;;;;;;;;13.53;60.36;99355.67;1682171;84;20214;-67
2022/09/09 00:20:36;;;;;;;;;;;;;;;13.50;60.39;99352.58;1674487;84;20192;-66
2022/09/09 00:23:24;;;;;;;;;;;;;;;13.46;60.58;99348.61;1673746;84;20112;-66
2022/09/09 00:25:57;;;;;;;;;;;;;;;13.44;60.69;99353.33;1658554;84;20154;-67
2022/09/09 00:28:26;;;;;;;;;;;;;;;13.42;60.79;99344.69;1635452;86;21195;-67
2022/09/09 00:30:53;;;;;;;;;;;;;;;13.42;60.80;99353.53;1680379;84;20139;-67
2022/09/09 00:33:22;;;;;;;;;;;;;;;13.42;60.80;99344.18;1677080;84;20178;-67
2022/09/09 00:35:52;;;;;;;;;;;;;;;13.40;60.85;99346.73;1680282;84;20186;-67
2022/09/09 00:38:24;;;;;;;;;;;;;;;13.41;60.90;99354.55;1682298;84;20163;-66
2022/09/09 00:40:55;;;;;;;;;;;;;;;13.42;60.91;99348.19;1672489;84;21284;-67
2022/09/09 00:43:25;;;;;;;;;;;;;;;13.44;60.98;99339.97;1671269;84;20144;-67
2022/09/09 00:46:16;;;;;;;;;;;;;;;13.41;61.03;99341.18;1677636;84;20086;-67
2022/09/09 00:48:52;;;;;;;;;;;;;;;13.41;61.10;99337.67;1673750;84;20162;-67
2022/09/09 00:51:39;;;;;;;;;;;;;;;13.36;61.22;99332.08;1677424;84;20213;-66
2022/09/09 00:54:12;;;;;;;;;;;;;;;13.36;61.17;99333.42;1680067;84;21916;-67
2022/09/09 00:56:42;;;;;;;;;;;;;;;13.35;61.25;99333.09;1653315;84;20122;-67
2022/09/09 00:59:21;;;;;;;;;;;;;;;13.34;61.32;99340.80;1643717;85;20403;-67
2022/09/09 01:01:48;;;;;;;;;;;;;;;13.31;61.46;99339.34;1662247;84;20093;-68
2022/09/09 01:04:20;;;;;;;;;;;;;;;13.27;61.55;99330.04;1651447;86;20102;-68
2022/09/09 01:06:48;;;;;;;;;;;;;;;13.25;61.63;99324.56;1652984;86;21157;-67
2022/09/09 01:09:28;;;;;;;;;;;;;;;13.22;61.81;99335.12;1651833;85;20181;-67
2022/09/09 01:12:18;;;;;;;;;;;;;;;13.19;61.83;99328.83;1648996;86;20102;-67
2022/09/09 01:14:48;;;;;;;;;;;;;;;13.19;61.88;99330.16;1651379;86;20078;-67
2022/09/09 01:17:23;;;;;;;;;;;;;;;13.16;61.92;99333.74;1647665;86;20171;-67
2022/09/09 01:20:17;;;;;;;;;;;;;;;13.15;62.03;99324.06;1647929;86;21135;-67
2022/09/09 01:23:06;;;;;;;;;;;;;;;13.12;62.18;99323.94;1634459;87;20094;-67
2022/09/09 01:26:05;;;;;;;;;;;;;;;13.10;62.23;99323.81;1658222;85;20126;-67
2022/09/09 01:28:32;;;;;;;;;;;;;;;13.05;62.55;99327.02;1646291;85;20118;-67
2022/09/09 01:31:00;;;;;;;;;;;;;;;13.01;62.59;99319.05;1640888;86;20182;-67
2022/09/09 01:33:28;;;;;;;;;;;;;;;12.98;62.87;99328.80;1642915;86;21192;-67
2022/09/09 01:36:07;;;;;;;;;;;;;;;12.99;62.87;99318.42;1641014;86;20094;-68
2022/09/09 01:38:35;;;;;;;;;;;;;;;12.98;62.95;99323.47;1642212;85;20373;-67
2022/09/09 01:41:02;;;;;;;;;;;;;;;13.00;62.88;99320.92;1637353;86;20117;-67
2022/09/09 01:43:30;;;;;;;;;;;;;;;13.01;62.96;99323.06;1641981;86;20443;-67
2022/09/09 01:45:58;;;;;;;;;;;;;;;13.03;62.91;99315.17;1644183;86;22091;-67
2022/09/09 01:48:25;;;;;;;;;;;;;;;13.06;62.88;99319.34;1620384;86;20137;-67
2022/09/09 01:50:53;;;;;;;;;;;;;;;13.07;62.96;99325.52;1641934;86;20160;-67
2022/09/09 01:53:20;;;;;;;;;;;;;;;13.05;63.05;99325.69;1645212;86;20622;-67
2022/09/09 01:55:57;;;;;;;;;;;;;;;13.08;63.03;99326.68;1639898;86;20121;-67
2022/09/09 01:58:30;;;;;;;;;;;;;;;13.11;62.98;99342.33;1639091;85;21202;-67
2022/09/09 02:01:08;;;;;;;;;;;;;;;13.12;62.93;99331.11;1644570;86;20121;-67
2022/09/09 02:03:34;;;;;;;;;;;;;;;13.16;62.84;99322.55;1640695;86;20150;-66
2022/09/09 02:06:20;;;;;;;;;;;;;;;13.20;62.76;99333.67;1642165;86;20106;-66
2022/09/09 02:08:49;;;;;;;;;;;;;;;13.21;62.85;99332.66;1642245;86;20123;-67
2022/09/09 02:11:20;;;;;;;;;;;;;;;13.21;62.77;99337.50;1642040;86;21134;-67
2022/09/09 02:13:50;;;;;;;;;;;;;;;13.22;62.73;99333.80;1641002;86;20113;-66
2022/09/09 02:16:22;;;;;;;;;;;;;;;13.26;62.63;99340.92;1641668;86;20129;-66
2022/09/09 02:18:53;;;;;;;;;;;;;;;13.29;62.57;99338.72;1631952;86;20470;-67
2022/09/09 02:21:21;;;;;;;;;;;;;;;13.28;62.46;99328.20;1628756;86;20198;-67
2022/09/09 02:23:48;;;;;;;;;;;;;;;13.30;62.45;99333.67;1608879;87;20610;-66
2022/09/09 02:26:20;;;;;;;;;;;;;;;13.31;62.47;99329.98;1631142;86;20102;-66
2022/09/09 02:28:44;;;;;;;;;;;;;;;13.30;62.54;99331.00;1630740;86;20339;-66
2022/09/09 02:31:10;;;;;;;;;;;;;;;13.30;62.59;99328.83;1632815;86;20215;-67
2022/09/09 02:33:42;;;;;;;;;;;;;;;13.31;62.61;99328.66;1630809;86;20397;-67
2022/09/09 02:36:09;;;;;;;;;;;;;;;13.33;62.59;99333.80;1633439;86;21192;-67
2022/09/09 02:38:39;;;;;;;;;;;;;;;13.35;62.45;99325.07;1632092;86;20439;-67
2022/09/09 02:41:07;;;;;;;;;;;;;;;13.36;62.40;99328.91;1630714;87;20456;-67
2022/09/09 02:43:34;;;;;;;;;;;;;;;13.38;62.28;99336.72;1631640;86;20706;-67
2022/09/09 02:46:20;;;;;;;;;;;;;;;13.37;62.30;99335.91;1628670;86;20572;-67
2022/09/09 02:49:01;;;;;;;;;;;;;;;13.38;62.29;99343.39;1624539;86;21845;-66
2022/09/09 02:51:43;;;;;;;;;;;;;;;13.38;62.30;99340.22;1630673;86;20531;-67
2022/09/09 02:54:22;;;;;;;;;;;;;;;13.36;62.48;99336.92;1630444;86;20173;-67
2022/09/09 02:56:54;;;;;;;;;;;;;;;13.35;62.50;99335.76;1631284;86;20434;-66
2022/09/09 02:59:22;;;;;;;;;;;;;;;13.34;64.73;99328.28;1629009;86;20201;-67
2022/09/09 03:01:48;;;;;;;;;;;;;;;13.08;73.65;99336.03;1629442;86;21177;-67
2022/09/09 03:04:14;;;;;;;;;;;;;;;12.60;77.29;99336.66;1633374;86;20202;-67
2022/09/09 03:06:41;;;;;;;;;;;;;;;12.19;79.56;99334.99;1634783;86;20086;-67
2022/09/09 03:09:10;;;;;;;;;;;;;;;11.87;81.39;99341.48;1630931;86;20140;-67
2022/09/09 03:11:38;;;;;;;;;;;;;;;11.61;83.46;99345.03;1632224;86;20173;-66
2022/09/09 03:14:06;;;;;;;;;;;;;;;11.44;85.52;99352.35;1634114;86;21208;-67
2022/09/09 03:16:34;;;;;;;;;;;;;;;11.36;86.54;99353.74;1628368;86;20504;-67
2022/09/09 03:19:01;;;;;;;;;;;;;;;11.30;88.47;99356.27;1632273;86;20145;-67
2022/09/09 03:21:27;;;;;;;;;;;;;;;11.25;88.68;99362.64;1633379;86;20166;-68
2022/09/09 03:23:55;;;;;;;;;;;;;;;11.24;89.29;99365.80;1634496;86;20237;-68
2022/09/09 03:26:22;;;;;;;;;;;;;;;11.23;89.85;99373.48;1630240;86;21275;-67
2022/09/09 03:28:51;;;;;;;;;;;;;;;11.23;90.79;99384.63;1630718;86;20474;-68
2022/09/09 03:31:18;;;;;;;;;;;;;;;11.20;91.31;99384.48;1632166;86;20152;-68
2022/09/09 03:33:44;;;;;;;;;;;;;;;11.18;91.61;99388.63;1632768;86;20530;-68
2022/09/09 03:36:12;;;;;;;;;;;;;;;11.20;92.13;99380.98;1635584;86;20094;-68
2022/09/09 03:38:39;;;;;;;;;;;;;;;11.24;92.48;99383.11;1632401;86;21271;-68
2022/09/09 03:41:07;;;;;;;;;;;;;;;11.21;92.30;99382.13;1647063;85;20131;-68
2022/09/09 03:43:34;;;;;;;;;;;;;;;11.15;92.53;99377.03;1631373;86;20115;-68
2022/09/09 03:46:00;;;;;;;;;;;;;;;11.18;92.99;99373.98;1630976;86;20220;-68
2022/09/09 03:48:27;;;;;;;;;;;;;;;11.19;93.09;99372.16;1633688;86;20101;-68
2022/09/09 03:50:55;;;;;;;;;;;;;;;11.21;93.37;99360.82;1631304;86;21173;-68
2022/09/09 03:53:23;;;;;;;;;;;;;;;11.22;93.47;99362.98;1630768;86;20525;-68
2022/09/09 03:55:54;;;;;;;;;;;;;;;11.20;93.58;99357.84;1646550;85;20090;-67
2022/09/09 03:58:19;;;;;;;;;;;;;;;11.17;93.57;99356.87;1627807;86;20126;-68
2022/09/09 04:00:57;;;;;;;;;;;;;;;11.16;93.85;99352.53;1633204;86;20116;-68
2022/09/09 04:03:26;;;;;;;;;;;;;;;11.17;94.01;99351.55;1632423;86;21194;-68
2022/09/09 04:05:52;;;;;;;;;;;;;;;11.17;94.20;99354.20;1632703;86;20119;-67
2022/09/09 04:08:19;;;;;;;;;;;;;;;11.16;94.24;99348.05;1633097;86;20164;-67
2022/09/09 04:10:48;;;;;;;;;;;;;;;11.15;94.27;99356.22;1632316;86;20115;-67
2022/09/09 04:13:17;;;;;;;;;;;;;;;11.16;94.39;99358.70;1630692;86;20188;-68
2022/09/09 04:15:54;;;;;;;;;;;;;;;11.18;94.46;99369.19;1633121;86;21862;-67
2022/09/09 04:18:20;;;;;;;;;;;;;;;11.15;94.44;99365.05;1633444;86;20105;-68
2022/09/09 04:20:48;;;;;;;;;;;;;;;11.15;94.41;99366.38;1679905;84;20106;-68
2022/09/09 04:23:15;;;;;;;;;;;;;;;11.13;94.48;99371.02;1678119;84;20468;-67
2022/09/09 04:25:46;;;;;;;;;;;;;;;11.10;94.43;99372.73;1676010;84;20477;-67
2022/09/09 04:28:14;;;;;;;;;;;;;;;11.13;94.64;99366.23;1663155;85;21245;-68
2022/09/09 04:30:41;;;;;;;;;;;;;;;11.13;94.66;99374.22;1661157;84;20470;-68
2022/09/09 04:33:09;;;;;;;;;;;;;;;11.13;94.75;99373.69;1637611;86;20128;-69
2022/09/09 04:35:35;;;;;;;;;;;;;;;11.16;94.88;99368.52;1656647;85;20119;-68
2022/09/09 04:38:02;;;;;;;;;;;;;;;11.20;95.01;99369.00;1681670;83;20178;-68
2022/09/09 04:40:30;;;;;;;;;;;;;;;11.19;94.85;99372.16;1653537;82;21188;-67
2022/09/09 04:42:58;;;;;;;;;;;;;;;11.19;94.95;99372.16;1678610;83;20176;-67
2022/09/09 04:45:25;;;;;;;;;;;;;;;11.18;94.91;99373.18;1681638;82;20197;-68
2022/09/09 04:47:53;;;;;;;;;;;;;;;11.13;94.67;99372.88;1682575;83;20103;-67
2022/09/09 04:50:20;;;;;;;;;;;;;;;11.08;94.59;99372.55;1685792;83;20235;-67
2022/09/09 04:52:46;;;;;;;;;;;;;;;11.03;94.63;99369.09;1681166;83;21225;-67
2022/09/09 04:55:13;;;;;;;;;;;;;;;11.02;94.74;99369.28;1685973;82;20555;-67
2022/09/09 04:57:41;;;;;;;;;;;;;;;10.99;94.83;99368.30;1659402;85;20188;-67
2022/09/09 05:00:12;;;;;;;;;;;;;;;10.97;94.82;99364.50;1682210;83;20178;-67
2022/09/09 05:02:39;;;;;;;;;;;;;;;10.97;95.03;99361.00;1687840;84;20149;-67
2022/09/09 05:05:06;;;;;;;;;;;;;;;10.92;95.03;99352.19;1698861;83;21106;-67
2022/09/09 05:07:34;;;;;;;;;;;;;;;10.88;94.98;99355.38;1675868;84;20149;-67
2022/09/09 05:10:01;;;;;;;;;;;;;;;10.83;95.04;99352.42;1680632;85;20171;-67
2022/09/09 05:12:29;;;;;;;;;;;;;;;10.80;95.16;99350.94;1682444;85;20115;-66
2022/09/09 05:14:55;;;;;;;;;;;;;;;10.80;95.36;99347.44;1676550;85;20115;-66
2022/09/09 05:17:22;;;;;;;;;;;;;;;10.80;95.60;99361.58;1678832;84;21148;-66
2022/09/09 05:19:49;;;;;;;;;;;;;;;10.81;95.76;99367.24;1681319;83;20171;-66
2022/09/09 05:22:22;;;;;;;;;;;;;;;10.82;95.88;99370.20;1681077;85;20126;-66
2022/09/09 05:24:51;;;;;;;;;;;;;;;10.80;95.98;99372.22;1678605;85;20101;-67
2022/09/09 05:27:19;;;;;;;;;;;;;;;10.76;95.95;99374.92;1680981;84;20178;-67
2022/09/09 05:29:46;;;;;;;;;;;;;;;10.76;96.50;99366.10;1679503;83;21252;-67
2022/09/09 05:32:14;;;;;;;;;;;;;;;10.78;96.46;99360.94;1681814;83;20206;-67
2022/09/09 05:34:40;;;;;;;;;;;;;;;10.74;96.32;99367.59;1678595;85;20220;-66
2022/09/09 05:37:07;;;;;;;;;;;;;;;10.75;96.52;99370.59;1674562;85;20251;-66
2022/09/09 05:39:36;;;;;;;;;;;;;;;10.73;96.37;99374.42;1679326;83;20182;-66
2022/09/09 05:42:04;;;;;;;;;;;;;;;10.70;96.49;99374.27;1682640;84;22062;-65
2022/09/09 05:44:31;;;;;;;;;;;;;;;10.73;96.72;99378.42;1683494;84;20234;-66
2022/09/09 05:46:58;;;;;;;;;;;;;;;10.75;96.86;99376.41;1680081;84;20143;-66
2022/09/09 05:49:25;;;;;;;;;;;;;;;10.77;96.84;99373.06;1637724;85;20205;-70
2022/09/09 05:51:51;;;;;;;;;;;;;;;10.77;96.78;99376.56;1633928;85;20194;-68
2022/09/09 05:54:19;;;;;;;;;;;;;;;10.74;96.70;99372.10;1638885;85;21188;-68
2022/09/09 05:56:49;;;;;;;;;;;;;;;10.74;96.86;99382.75;1637925;85;20125;-68
2022/09/09 05:59:16;;;;;;;;;;;;;;;10.73;96.94;99384.58;1643124;85;20180;-69
2022/09/09 06:01:42;;;;;;;;;;;;;;;10.70;96.78;99376.09;1647952;85;20151;-69
2022/09/09 06:04:11;;;;;;;;;;;;;;;10.68;96.79;99376.28;1641074;85;20491;-69
2022/09/09 06:06:41;;;;;;;;;;;;;;;10.67;96.81;99377.77;1635247;85;21226;-69
2022/09/09 06:09:16;;;;;;;;;;;;;;;10.65;97.03;99376.63;1642922;85;20211;-69
2022/09/09 06:11:43;;;;;;;;;;;;;;;10.65;98.04;99371.80;1639616;85;20429;-68
2022/09/09 06:14:09;;;;;;;;;;;;;;;10.66;98.38;99375.64;1645059;85;20626;-68
2022/09/09 06:16:42;;;;;;;;;;;;;;;10.65;98.47;99377.95;1642972;85;20146;-67
2022/09/09 06:19:09;;;;;;;;;;;;;;;10.66;97.82;99384.95;1662857;84;21171;-66
2022/09/09 06:21:40;;;;;;;;;;;;;;;10.69;97.82;99390.42;1664465;84;20136;-65
2022/09/09 06:24:07;;;;;;;;;;;;;;;10.70;97.82;99381.42;1664409;84;20089;-68
2022/09/09 06:26:35;;;;;;;;;;;;;;;10.67;97.65;99389.25;1666493;84;20114;-66
2022/09/09 06:29:03;;;;;;;;;;;;;;;10.66;97.68;99390.77;1663204;84;20232;-66
2022/09/09 06:31:33;;;;;;;;;;;;;;;10.69;97.73;99393.08;1662494;86;21388;-66
2022/09/09 06:34:04;;;;;;;;;;;;;;;10.70;97.87;99396.89;1664886;84;20149;-66
2022/09/09 06:36:31;;;;;;;;;;;;;;;10.74;97.95;99393.39;1642510;86;20173;-69
2022/09/09 06:38:58;;;;;;;;;;;;;;;10.79;98.09;99385.22;1662672;84;20467;-68
2022/09/09 06:41:29;;;;;;;;;;;;;;;10.82;98.05;99383.52;1668129;84;20428;-65
2022/09/09 06:43:56;;;;;;;;;;;;;;;10.84;98.04;99383.36;1664566;84;21183;-66
2022/09/09 06:46:30;;;;;;;;;;;;;;;10.86;98.03;99376.02;1664165;84;20132;-67
2022/09/09 06:48:57;;;;;;;;;;;;;;;10.88;98.05;99364.69;1666214;84;20172;-66
2022/09/09 06:51:24;;;;;;;;;;;;;;;10.89;98.04;99367.70;1664232;86;20114;-66
2022/09/09 06:53:52;;;;;;;;;;;;;;;10.86;97.91;99360.89;1645224;86;20152;-66
2022/09/09 06:56:27;;;;;;;;;;;;;;;10.86;97.96;99370.20;1650974;86;21168;-68
2022/09/09 06:58:55;;;;;;;;;;;;;;;10.85;97.88;99371.69;1668472;84;20109;-66
2022/09/09 07:01:26;;;;;;;;;;;;;;;10.82;97.84;99376.86;1652542;86;20090;-67
2022/09/09 07:03:55;;;;;;;;;;;;;;;10.80;97.83;99372.22;1682955;83;20624;-67
2022/09/09 07:06:26;;;;;;;;;;;;;;;10.79;97.94;99375.91;1645667;85;20176;-67
2022/09/09 07:08:55;;;;;;;;;;;;;;;10.82;98.04;99380.85;1639577;85;20473;-67
2022/09/09 07:11:26;;;;;;;;;;;;;;;10.82;98.39;99383.52;1633542;85;20091;-66
2022/09/09 07:13:54;;;;;;;;;;;;;;;10.79;98.26;99394.53;1645949;85;20197;-65
2022/09/09 07:16:24;;;;;;;;;;;;;;;10.79;98.20;99387.88;1643058;85;20134;-66
2022/09/09 07:18:51;;;;;;;;;;;;;;;10.80;98.31;99384.20;1645145;85;20193;-65
2022/09/09 07:21:18;;;;;;;;;;;;;;;10.83;98.26;99392.33;1618849;86;21797;-66
2022/09/09 07:23:45;;;;;;;;;;;;;;;10.83;98.31;99402.48;1599790;88;20182;-66
2022/09/09 07:26:14;;;;;;;;;;;;;;;10.80;98.33;99392.67;1619124;87;20117;-66
2022/09/09 07:28:41;;;;;;;;;;;;;;;10.83;98.50;99395.83;1615780;87;20198;-66
2022/09/09 07:31:13;;;;;;;;;;;;;;;10.85;98.64;99391.16;1618852;87;20145;-67
2022/09/09 07:33:40;;;;;;;;;;;;;;;10.88;98.69;99389.48;1610778;87;21806;-67
2022/09/09 07:36:17;;;;;;;;;;;;;;;10.88;99.13;99385.98;1620631;87;20148;-66
2022/09/09 07:38:45;;;;;;;;;;;;;;;10.88;99.78;99397.47;1616480;87;20126;-68
2022/09/09 07:41:15;;;;;;;;;;;;;;;10.86;99.53;99406.63;1621066;87;20107;-66
2022/09/09 07:43:42;;;;;;;;;;;;;;;10.83;99.70;99413.13;1615543;87;20099;-67
2022/09/09 07:46:09;;;;;;;;;;;;;;;10.87;99.46;99422.94;1619104;87;21236;-64
2022/09/09 07:48:36;;;;;;;;;;;;;;;10.88;99.39;99408.61;1621217;87;20119;-68
2022/09/09 07:51:08;;;;;;;;;;;;;;;10.88;99.43;99411.27;1619652;88;20387;-68
2022/09/09 07:53:36;;;;;;;;;;;;;;;10.94;99.53;99416.74;1619890;87;20464;-65
2022/09/09 07:56:10;;;;;;;;;;;;;;;10.91;100.00;99413.09;1620010;86;20142;-66
2022/09/09 07:58:38;;;;;;;;;;;;;;;10.89;100.00;99409.78;1611367;87;21174;-66
2022/09/09 08:01:17;;;;;;;;;;;;;;;10.90;100.00;99410.59;1618671;87;20208;-67
2022/09/09 08:03:45;;;;;;;;;;;;;;;10.92;100.00;99409.94;1598776;87;20115;-66
2022/09/09 08:06:13;;;;;;;;;;;;;;;10.94;100.00;99411.42;1618334;88;20448;-67
2022/09/09 08:08:47;;;;;;;;;;;;;;;10.95;100.00;99411.73;1612200;87;20166;-66
2022/09/09 08:11:11;;;;;;;;;;;;;;;10.97;100.00;99407.08;1616452;87;21194;-67
2022/09/09 08:13:39;;;;;;;;;;;;;;;10.96;100.00;99409.90;1618380;87;20226;-65
2022/09/09 08:16:16;;;;;;;;;;;;;;;10.96;100.00;99408.08;1615134;87;20459;-65
2022/09/09 08:18:44;;;;;;;;;;;;;;;11.03;100.00;99415.68;1617508;87;20099;-66
2022/09/09 08:21:13;;;;;;;;;;;;;;;11.07;100.00;99409.02;1640505;86;20464;-66
2022/09/09 08:23:41;;;;;;;;;;;;;;;11.09;100.00;99403.51;1644291;85;20138;-65
2022/09/09 08:26:22;;;;;;;;;;;;;;;11.11;100.00;99417.47;1642481;85;20095;-67
2022/09/09 08:28:52;;;;;;;;;;;;;;;11.08;100.00;99405.34;1641803;85;20431;-68
2022/09/09 08:31:25;;;;;;;;;;;;;;;11.07;100.00;99391.72;1640917;85;20198;-67
2022/09/09 08:33:51;;;;;;;;;;;;;;;11.08;100.00;99405.34;1639716;85;20185;-67
2022/09/09 08:36:21;;;;;;;;;;;;;;;11.12;100.00;99388.52;1645180;85;22074;-66
2022/09/09 08:38:50;;;;;;;;;;;;;;;11.14;100.00;99386.00;1639551;85;20103;-66
2022/09/09 08:41:30;;;;;;;;;;;;;;;11.15;100.00;99386.84;1656304;84;20082;-68
2022/09/09 08:44:14;;;;;;;;;;;;;;;11.12;100.00;99380.53;1682483;84;20151;-68
2022/09/09 08:46:56;;;;;;;;;;;;;;;11.08;100.00;99370.72;1681497;84;20171;-68
2022/09/09 08:49:47;;;;;;;;;;;;;;;11.06;100.00;99398.53;1676969;84;21793;-68
2022/09/09 08:52:21;;;;;;;;;;;;;;;11.01;100.00;99367.61;1680164;84;20131;-66
2022/09/09 08:54:47;;;;;;;;;;;;;;;10.99;100.00;99377.12;1658483;84;20089;-67
2022/09/09 08:57:16;;;;;;;;;;;;;;;10.93;100.00;99359.18;1656980;84;20093;-67
2022/09/09 08:59:43;;;;;;;;;;;;;;;10.94;100.00;99356.86;1679909;84;20457;-67
2022/09/09 09:02:16;;;;;;;;;;;;;;;10.95;100.00;99357.69;1680186;84;21361;-67
2022/09/09 09:04:51;;;;;;;;;;;;;;;10.97;100.00;99363.16;1678093;84;20151;-68
2022/09/09 09:07:33;;;;;;;;;;;;;;;11.04;100.00;99357.45;1645594;85;20455;-67
2022/09/09 09:10:22;;;;;;;;;;;;;;;11.08;100.00;99357.41;1626994;86;20132;-67
2022/09/09 09:12:50;;;;;;;;;;;;;;;11.08;100.00;99353.92;1646617;84;20122;-67
2022/09/09 09:15:21;;;;;;;;;;;;;;;11.10;100.00;99356.76;1655613;85;21180;-67
2022/09/09 09:17:48;;;;;;;;;;;;;;;11.13;100.00;99368.89;1655129;84;20093;-67
2022/09/09 09:20:20;;;;;;;;;;;;;;;11.10;100.00;99355.92;1657834;85;20217;-66
2022/09/09 09:22:51;;;;;;;;;;;;;;;11.13;100.00;99352.39;1650715;85;20219;-66
2022/09/09 09:25:22;;;;;;;;;;;;;;;11.14;100.00;99351.89;1650369;85;35862;-67
2022/09/09 09:28:00;;;;;;;;;;;;;;;11.19;100.00;99352.19;1646682;85;21135;-67
2022/09/09 09:30:39;;;;;;;;;;;;;;;11.24;100.00;99354.34;1651641;85;20117;-68
2022/09/09 09:33:23;;;;;;;;;;;;;;;11.23;100.00;99350.84;1651838;86;20171;-67
2022/09/09 09:35:54;;;;;;;;;;;;;;;11.19;100.00;99352.19;1673998;84;20137;-67
2022/09/09 09:38:27;;;;;;;;;;;;;;;11.22;100.00;99361.66;1650525;85;20454;-67
2022/09/09 09:41:00;;;;;;;;;;;;;;;11.25;100.00;99363.47;1646550;85;21852;-67
2022/09/09 09:43:35;;;;;;;;;;;;;;;11.26;100.00;99369.14;1651803;85;20084;-66
2022/09/09 09:46:07;;;;;;;;;;;;;;;11.28;100.00;99368.45;1652547;85;20133;-65
2022/09/09 09:48:34;;;;;;;;;;;;;;;11.31;100.00;99368.59;1649473;86;20435;-66
2022/09/09 09:51:07;;;;;;;;;;;;;;;11.32;100.00;99371.06;1646428;85;20157;-66
2022/09/09 09:53:34;;;;;;;;;;;;;;;11.30;100.00;99375.75;1653426;85;21966;-67
2022/09/09 09:56:03;;;;;;;;;;;;;;;11.32;100.00;99376.89;1649821;85;20169;-67
2022/09/09 09:58:33;;;;;;;;;;;;;;;11.32;100.00;99368.91;1647895;85;20126;-68
2022/09/09 10:01:00;;;;;;;;;;;;;;;11.35;100.00;99371.21;1646311;85;20815;-66
2022/09/09 10:03:30;;;;;;;;;;;;;;;17.34;100.00;99556.08;1654871;86;20117;-67
2022/09/09 10:05:57;;;;;;;;;;;;;;;16.33;100.00;99354.73;1643129;85;21210;-65
2022/09/09 10:08:25;;;;;;;;;;;;;;;15.72;100.00;99300.53;1654057;85;20430;-64
2022/09/09 10:11:03;;;;;;;;;;;;;;;14.89;100.00;99366.66;1649029;85;20157;-65
2022/09/09 10:13:50;;;;;;;;;;;;;;;14.56;100.00;99361.17;1649212;85;20096;-67
2022/09/09 10:16:36;;;;;;;;;;;;;;;15.80;100.00;99400.91;1646256;85;20148;-68
2022/09/09 10:19:06;;;;;;;;;;;;;;;15.05;100.00;99384.22;1652155;85;21176;-66
2022/09/09 10:21:39;;;;;;;;;;;;;;;14.94;100.00;99384.83;1632964;86;20156;-67
2022/09/09 10:24:38;;;;;;;;;;;;;;;15.00;100.00;99371.95;1657973;85;20110;-66
2022/09/09 10:27:27;;;;;;;;;;;;;;;14.72;100.00;99388.12;1660552;85;20117;-67
2022/09/09 10:30:16;;;;;;;;;;;;;;;14.71;100.00;99395.32;1667896;85;20099;-67
2022/09/09 10:33:00;;;;;;;;;;;;;;;15.08;100.00;99393.20;1688479;83;21878;-66
2022/09/09 10:35:34;;;;;;;;;;;;;;;14.70;100.00;99393.66;1691506;83;20115;-65
2022/09/09 10:38:07;;;;;;;;;;;;;;;14.74;100.00;99407.48;1694962;83;20503;-68
2022/09/09 10:40:44;;;;;;;;;;;;;;;14.96;100.00;99410.89;1692573;83;20151;-67
2022/09/09 10:43:20;;;;;;;;;;;;;;;14.73;100.00;99408.53;1694171;83;20839;-66
2022/09/09 10:45:53;;;;;;;;;;;;;;;15.09;100.00;99433.72;1643333;84;21103;-66
2022/09/09 10:48:23;;;;;;;;;;;;;;;15.22;100.00;99400.27;1693042;83;20112;-67
2022/09/09 10:50:53;;;;;;;;;;;;;;;15.31;100.00;99407.91;1694251;83;20106;-67
2022/09/09 10:53:44;;;;;;;;;;;;;;;15.38;100.00;99412.77;1690029;83;20089;-66
2022/09/09 10:56:15;;;;;;;;;;;;;;;14.82;100.00;99423.39;1692605;83;20253;-66
2022/09/09 10:58:48;;;;;;;;;;;;;;;14.58;100.00;99423.36;1693598;83;20837;-67
2022/09/09 11:01:23;;;;;;;;;;;;;;;14.38;100.00;99430.45;1691214;83;20134;-67
2022/09/09 11:03:59;;;;;;;;;;;;;;;14.38;100.00;99434.97;1688470;83;20103;-67
2022/09/09 11:06:29;;;;;;;;;;;;;;;14.62;100.00;99435.85;1690444;83;20734;-66
2022/09/09 11:08:57;;;;;;;;;;;;;;;14.74;100.00;99427.56;1650657;84;20149;-66
2022/09/09 11:11:31;;;;;;;;;;;;;;;14.87;100.00;99432.99;1636906;86;21278;-66
2022/09/09 11:14:08;;;;;;;;;;;;;;;14.97;100.00;99425.92;1633653;86;20113;-68
2022/09/09 11:16:57;;;;;;;;;;;;;;;15.06;100.00;99430.09;1641260;86;20111;-67
2022/09/09 11:19:41;;;;;;;;;;;;;;;14.94;100.00;99419.65;1640208;86;20118;-68
2022/09/09 11:22:10;;;;;;;;;;;;;;;14.87;100.00;99423.62;1628758;86;20429;-65
2022/09/09 11:24:43;;;;;;;;;;;;;;;14.81;100.00;99421.72;1647549;86;21139;-66
2022/09/09 11:27:22;;;;;;;;;;;;;;;14.82;100.00;99401.97;1643735;86;20109;-67
2022/09/09 11:29:54;;;;;;;;;;;;;;;14.79;100.00;99404.53;1631623;86;20400;-67
2022/09/09 11:32:41;;;;;;;;;;;;;;;14.85;100.00;99410.95;1627163;86;20134;-67
2022/09/09 11:35:32;;;;;;;;;;;;;;;14.96;100.00;99397.50;1628593;86;20162;-67
2022/09/09 11:38:38;;;;;;;;;;;;;;;15.18;100.00;99408.38;1634488;86;21190;-67
2022/09/09 11:41:07;;;;;;;;;;;;;;;15.25;100.00;99391.83;1632921;86;20175;-67
2022/09/09 11:43:45;;;;;;;;;;;;;;;15.40;100.00;99381.76;1628175;86;20445;-67
2022/09/09 11:46:12;;;;;;;;;;;;;;;15.64;100.00;99386.58;1630205;87;20492;-66
2022/09/09 11:48:43;;;;;;;;;;;;;;;16.01;100.00;99379.75;1636519;86;20102;-66
2022/09/09 11:51:26;;;;;;;;;;;;;;;16.12;100.00;99390.38;1634148;87;21178;-66
2022/09/09 11:54:04;;;;;;;;;;;;;;;15.93;100.00;99388.84;1629221;86;20560;-67
2022/09/09 11:56:43;;;;;;;;;;;;;;;15.99;100.00;99391.22;1633066;87;20130;-67
2022/09/09 11:59:26;;;;;;;;;;;;;;;15.92;100.00;99391.23;1634897;86;20144;-66
2022/09/09 12:02:01;;;;;;;;;;;;;;;15.90;97.46;99378.52;1631948;86;20110;-68
2022/09/09 12:04:32;;;;;;;;;;;;;;;15.94;92.50;99378.42;1629741;86;21188;-66
2022/09/09 12:07:04;;;;;;;;;;;;;;;15.99;91.06;99373.77;1632203;86;20439;-66
2022/09/09 12:09:48;;;;;;;;;;;;;;;16.10;88.81;99381.20;1630876;86;20090;-67
2022/09/09 12:12:20;;;;;;;;;;;;;;;16.37;87.24;99380.11;1630466;86;20126;-67
2022/09/09 12:15:09;;;;;;;;;;;;;;;16.36;86.00;99377.14;1633660;86;20126;-67
2022/09/09 12:17:45;;;;;;;;;;;;;;;15.88;87.55;99375.22;1630480;86;21195;-67
2022/09/09 12:20:34;;;;;;;;;;;;;;;15.81;87.68;99382.96;1632731;86;20142;-67
2022/09/09 12:23:17;;;;;;;;;;;;;;;15.70;87.46;99387.59;1635742;86;20262;-66
2022/09/09 12:26:10;;;;;;;;;;;;;;;15.66;87.18;99388.53;1632083;87;20580;-66
2022/09/09 12:29:06;;;;;;;;;;;;;;;15.66;86.60;99383.17;1615731;86;20217;-66
2022/09/09 12:31:46;;;;;;;;;;;;;;;15.56;86.30;99384.09;1633257;86;21188;-69
2022/09/09 12:34:18;;;;;;;;;;;;;;;15.52;86.65;99377.47;1630592;86;20102;-66
2022/09/09 12:36:46;;;;;;;;;;;;;;;15.56;85.98;99375.22;1635215;86;20122;-66
2022/09/09 12:39:19;;;;;;;;;;;;;;;15.68;84.89;99376.25;1633612;86;20118;-67
2022/09/09 12:41:57;;;;;;;;;;;;;;;15.80;84.38;99375.97;1634087;83;20215;-65
2022/09/09 12:44:20;;;;;;;;;;;;;;;16.02;82.75;99368.00;1632256;83;21354;-66
2022/09/09 12:46:47;;;;;;;;;;;;;;;16.25;82.06;99364.35;1636514;83;20103;-67
2022/09/09 12:49:30;;;;;;;;;;;;;;;14.64;88.32;99369.03;1634197;83;20152;-66
2022/09/09 12:51:57;;;;;;;;;;;;;;;14.27;92.54;99406.86;1632335;83;20206;-66
2022/09/09 12:54:23;;;;;;;;;;;;;;;14.24;93.39;99380.50;1653285;85;20074;-66
2022/09/09 12:56:50;;;;;;;;;;;;;;;14.00;94.29;99388.45;1657734;85;21152;-66
2022/09/09 12:59:25;;;;;;;;;;;;;;;14.12;95.27;99385.58;1651716;86;20090;-67
2022/09/09 13:01:58;;;;;;;;;;;;;;;14.28;94.24;99377.76;1653996;85;20133;-66
2022/09/09 13:04:24;;;;;;;;;;;;;;;14.37;94.17;99383.80;1652659;86;20130;-66
2022/09/09 13:06:52;;;;;;;;;;;;;;;14.15;95.10;99375.00;1634848;86;20204;-66
2022/09/09 13:09:18;;;;;;;;;;;;;;;14.29;94.67;99375.38;1632525;86;21158;-67